Time;durP1;ratioP1;P1;durP2;ratioP2;P2;SDS_P1;SDS_P2;PMS_P1;PMS_P2;Temp;Humidity;BMP_temperature;BMP_pressure;BME280_temperature;BME280_humidity;BME280_pressure;Samples;Min_cycle;Max_cycle;Signal;HPM_P1;HPM_P2
2022/07/20 00:00:09;;;;;;;10.02;5.75;;;30.60;95.50;;;;;;4883649;29;20121;-76
2022/07/20 00:02:37;;;;;;;6.75;4.40;;;30.60;94.30;;;;;;4884093;29;20527;-77
2022/07/20 00:05:06;;;;;;;5.57;5.05;;;30.60;94.50;;;;;;4870216;29;20072;-77
2022/07/20 00:07:34;;;;;;;6.00;5.28;;;30.70;93.60;;;;;;4869427;29;20049;-77
2022/07/20 00:12:51;;;;;;;5.18;4.65;;;30.70;92.80;;;;;;4869104;29;20120;-77
2022/07/20 00:15:19;;;;;;;7.38;4.88;;;30.60;92.60;;;;;;4868054;29;20041;-77
2022/07/20 00:17:47;;;;;;;6.65;4.75;;;30.60;92.80;;;;;;4871535;29;20040;-77
2022/07/20 00:20:15;;;;;;;6.22;4.80;;;30.50;93.00;;;;;;4868764;29;20045;-77
2022/07/20 00:22:43;;;;;;;5.97;5.00;;;30.40;93.80;;;;;;4869322;29;20152;-75
2022/07/20 00:25:11;;;;;;;5.10;4.60;;;30.40;94.10;;;;;;4869830;29;20057;-76
2022/07/20 00:27:39;;;;;;;7.53;5.13;;;30.50;94.10;;;;;;4870277;29;20045;-75
2022/07/20 00:30:11;;;;;;;4.88;4.47;;;30.50;93.80;;;;;;4852462;29;20168;-75
2022/07/20 00:32:39;;;;;;;5.35;4.82;;;30.60;93.90;;;;;;4870125;29;20041;-75
2022/07/20 00:35:09;;;;;;;5.25;4.68;;;30.20;94.60;;;;;;4854482;29;20921;-78
2022/07/20 00:37:39;;;;;;;5.82;5.05;;;30.00;95.40;;;;;;4869598;29;20045;-77
2022/07/20 00:40:09;;;;;;;7.40;4.65;;;30.00;95.50;;;;;;4871123;29;20156;-78
2022/07/20 00:42:38;;;;;;;5.25;4.57;;;30.00;95.50;;;;;;4857941;29;20495;-78
2022/07/20 00:45:10;;;;;;;7.70;5.00;;;30.00;95.70;;;;;;4872838;29;20055;-79
2022/07/20 00:47:38;;;;;;;6.15;5.25;;;30.10;95.90;;;;;;4873518;29;20067;-77
2022/07/20 00:50:08;;;;;;;5.05;4.55;;;30.10;95.80;;;;;;4874269;29;20049;-78
2022/07/20 00:52:37;;;;;;;6.13;4.40;;;30.20;95.30;;;;;;4868360;29;20046;-78
2022/07/20 00:55:06;;;;;;;8.98;4.63;;;30.10;94.80;;;;;;4872072;29;20129;-78
2022/07/20 00:57:34;;;;;;;7.07;4.70;;;30.00;93.70;;;;;;4869749;29;20412;-78
2022/07/20 01:00:06;;;;;;;4.75;4.25;;;30.10;93.80;;;;;;4874093;29;20045;-78
2022/07/20 01:02:37;;;;;;;5.22;4.00;;;30.10;93.20;;;;;;4873333;29;20137;-79
2022/07/20 01:05:13;;;;;;;5.50;4.70;;;30.00;93.00;;;;;;4859360;29;20053;-80
2022/07/20 01:07:43;;;;;;;5.80;4.38;;;29.90;93.00;;;;;;4872654;29;20045;-79
2022/07/20 01:10:12;;;;;;;5.65;4.40;;;29.90;93.10;;;;;;4873542;29;20049;-79
2022/07/20 01:12:43;;;;;;;5.60;4.40;;;29.90;93.10;;;;;;4873549;29;20049;-80
2022/07/20 01:15:11;;;;;;;4.50;3.92;;;29.80;93.10;;;;;;4874372;29;20045;-80
2022/07/20 01:17:41;;;;;;;5.75;3.95;;;29.70;93.40;;;;;;4873873;29;20132;-80
2022/07/20 01:20:17;;;;;;;5.47;4.20;;;29.70;93.50;;;;;;4872411;29;20060;-79
2022/07/20 01:22:47;;;;;;;5.43;4.72;;;29.70;94.00;;;;;;4883679;29;20968;-79
2022/07/20 01:25:15;;;;;;;7.97;5.07;;;29.70;94.90;;;;;;4872716;29;20060;-79
2022/07/20 01:27:44;;;;;;;6.05;4.55;;;29.50;96.00;;;;;;4873153;29;20049;-79
2022/07/20 01:30:12;;;;;;;8.27;5.13;;;29.40;96.40;;;;;;4873827;29;20571;-79
2022/07/20 01:32:41;;;;;;;11.38;5.47;;;29.20;96.70;;;;;;4871508;29;20051;-78
2022/07/20 01:35:09;;;;;;;5.90;5.30;;;29.00;96.70;;;;;;4872561;29;20052;-79
2022/07/20 01:37:37;;;;;;;7.55;4.60;;;28.90;96.70;;;;;;4871541;29;20048;-79
2022/07/20 01:40:08;;;;;;;6.30;4.60;;;28.80;96.70;;;;;;4869133;29;20167;-79
2022/07/20 01:42:36;;;;;;;5.20;4.55;;;28.80;96.70;;;;;;4870619;29;20144;-78
2022/07/20 01:45:05;;;;;;;6.50;4.90;;;28.70;96.70;;;;;;4873582;29;20055;-79
2022/07/20 01:47:33;;;;;;;6.05;4.70;;;28.90;96.70;;;;;;4871372;29;20048;-79
2022/07/20 01:50:02;;;;;;;13.30;5.03;;;29.00;96.70;;;;;;4887562;29;20048;-79
2022/07/20 01:52:33;;;;;;;9.40;4.35;;;29.20;96.00;;;;;;4872371;29;20052;-79
2022/07/20 01:55:02;;;;;;;5.63;4.45;;;29.20;95.90;;;;;;4878818;29;20055;-78
2022/07/20 01:57:31;;;;;;;5.78;4.65;;;29.00;96.00;;;;;;4872453;29;20088;-78
2022/07/20 01:59:59;;;;;;;6.72;5.18;;;28.90;96.70;;;;;;4868707;29;20401;-78
2022/07/20 02:02:28;;;;;;;5.85;5.32;;;28.90;96.70;;;;;;4871312;29;20056;-79
2022/07/20 02:04:58;;;;;;;8.32;6.53;;;29.00;96.70;;;;;;4892408;29;20126;-79
2022/07/20 02:07:26;;;;;;;7.10;6.45;;;29.00;96.70;;;;;;4868660;29;20045;-78
2022/07/20 02:09:54;;;;;;;7.47;6.78;;;29.20;96.70;;;;;;4871238;29;20103;-79
2022/07/20 02:12:22;;;;;;;10.50;6.82;;;29.30;96.70;;;;;;4886714;29;20050;-79
2022/07/20 02:14:51;;;;;;;7.97;7.28;;;29.20;96.70;;;;;;4887032;29;20236;-80
2022/07/20 02:17:20;;;;;;;7.13;6.43;;;29.10;96.70;;;;;;4872469;29;20699;-80
2022/07/20 02:19:49;;;;;;;7.28;6.45;;;28.90;96.70;;;;;;4886994;29;20115;-80
2022/07/20 02:22:16;;;;;;;10.43;6.60;;;28.80;96.70;;;;;;4870747;29;20142;-79
2022/07/20 02:24:44;;;;;;;7.78;6.07;;;29.00;96.70;;;;;;4870898;29;20056;-79
2022/07/20 02:27:12;;;;;;;8.68;5.90;;;29.10;96.70;;;;;;4868253;29;20173;-79
2022/07/20 02:29:40;;;;;;;6.53;5.63;;;29.20;96.70;;;;;;4870314;29;20575;-79
2022/07/20 02:32:10;;;;;;;6.75;5.20;;;29.20;96.70;;;;;;4887253;29;20394;-80
2022/07/20 02:34:38;;;;;;;4.93;4.53;;;29.20;96.50;;;;;;4875782;29;20063;-79
2022/07/20 02:37:06;;;;;;;5.38;4.88;;;29.10;96.30;;;;;;4871998;29;20787;-79
2022/07/20 02:39:34;;;;;;;5.93;5.07;;;29.10;96.50;;;;;;4872218;29;20132;-79
2022/07/20 02:42:01;;;;;;;5.63;5.10;;;28.90;96.70;;;;;;4872237;29;20053;-79
2022/07/20 02:44:29;;;;;;;7.00;5.05;;;28.90;96.70;;;;;;4885552;29;20049;-79
2022/07/20 02:46:57;;;;;;;5.88;5.15;;;29.00;96.70;;;;;;4871849;29;20065;-79
2022/07/20 02:49:27;;;;;;;6.15;5.35;;;29.00;96.70;;;;;;4871856;29;20108;-79
2022/07/20 02:51:54;;;;;;;5.60;4.88;;;28.90;96.70;;;;;;4871343;29;20132;-79
2022/07/20 02:54:23;;;;;;;6.43;4.90;;;28.80;96.70;;;;;;4870276;29;20052;-79
2022/07/20 02:56:51;;;;;;;5.63;5.13;;;28.70;96.70;;;;;;4871844;29;20054;-79
2022/07/20 02:59:20;;;;;;;5.70;4.68;;;28.70;96.70;;;;;;4871313;29;20049;-79
2022/07/20 03:01:47;;;;;;;6.80;4.30;;;28.70;96.70;;;;;;4868919;29;20133;-78
2022/07/20 03:04:15;;;;;;;5.65;4.00;;;28.70;96.70;;;;;;4867145;29;20420;-79
2022/07/20 03:06:44;;;;;;;5.82;4.22;;;28.70;96.70;;;;;;4867692;29;20306;-76
2022/07/20 03:09:12;;;;;;;4.97;4.43;;;28.70;96.60;;;;;;4870086;29;20045;-76
2022/07/20 03:11:40;;;;;;;4.20;3.80;;;28.70;96.40;;;;;;4868121;29;20056;-76
2022/07/20 03:14:08;;;;;;;5.82;4.32;;;28.70;96.20;;;;;;4876581;29;20048;-76
2022/07/20 03:16:36;;;;;;;6.07;4.57;;;28.70;96.40;;;;;;4877679;29;20449;-76
2022/07/20 03:19:04;;;;;;;9.00;4.60;;;28.40;96.70;;;;;;4868360;29;20814;-76
2022/07/20 03:21:39;;;;;;;6.95;4.70;;;28.30;96.70;;;;;;4881813;29;20613;-76
2022/07/20 03:24:09;;;;;;;5.85;4.68;;;28.40;96.70;;;;;;4863095;29;20059;-76
2022/07/20 03:26:37;;;;;;;7.80;5.00;;;28.50;96.70;;;;;;4869802;29;20055;-75
2022/07/20 03:29:05;;;;;;;6.07;4.63;;;28.40;96.70;;;;;;4869538;29;20052;-76
2022/07/20 03:31:32;;;;;;;6.65;4.82;;;28.30;96.70;;;;;;4869283;29;20052;-76
2022/07/20 03:34:00;;;;;;;7.03;4.40;;;28.20;96.70;;;;;;4867522;29;20063;-75
2022/07/20 03:36:28;;;;;;;5.00;4.50;;;28.10;96.70;;;;;;4870737;29;20059;-76
2022/07/20 03:38:56;;;;;;;5.43;4.35;;;28.10;96.70;;;;;;4871062;29;20103;-76
2022/07/20 03:41:27;;;;;;;6.63;4.57;;;28.20;96.70;;;;;;4869812;29;20108;-76
2022/07/20 03:43:54;;;;;;;5.88;5.38;;;28.30;96.70;;;;;;4869631;29;20567;-76
2022/07/20 03:46:22;;;;;;;6.72;5.00;;;28.30;96.70;;;;;;4884666;29;20607;-76
2022/07/20 03:48:50;;;;;;;6.05;4.60;;;28.20;96.70;;;;;;4884946;29;20049;-76
2022/07/20 03:51:19;;;;;;;5.18;4.65;;;27.90;96.70;;;;;;4870630;29;20057;-77
2022/07/20 03:53:49;;;;;;;4.60;4.20;;;28.00;96.70;;;;;;4871418;29;20128;-76
2022/07/20 03:56:17;;;;;;;4.90;4.40;;;28.00;96.70;;;;;;4884057;29;20060;-76
2022/07/20 03:58:47;;;;;;;4.90;4.38;;;28.00;96.70;;;;;;4870891;29;20538;-76
2022/07/20 04:01:15;;;;;;;5.13;4.50;;;28.10;96.70;;;;;;4868762;29;20504;-76
2022/07/20 04:03:43;;;;;;;5.40;4.10;;;28.20;96.70;;;;;;4854434;29;20076;-76
2022/07/20 04:06:11;;;;;;;5.45;4.53;;;28.20;96.70;;;;;;4869866;29;20084;-76
2022/07/20 04:08:39;;;;;;;5.45;4.30;;;28.10;96.70;;;;;;4869956;29;20195;-76
2022/07/20 04:11:07;;;;;;;6.57;4.50;;;28.00;96.70;;;;;;4866633;29;20113;-76
2022/07/20 04:13:35;;;;;;;7.53;4.50;;;28.00;96.70;;;;;;4870689;29;20049;-76
2022/07/20 04:16:04;;;;;;;6.50;4.30;;;28.10;96.70;;;;;;4883492;29;20144;-76
2022/07/20 04:18:32;;;;;;;7.55;4.07;;;28.10;96.70;;;;;;4869483;29;20057;-76
2022/07/20 04:21:00;;;;;;;4.55;3.97;;;27.90;96.70;;;;;;4853317;29;20053;-76
2022/07/20 04:23:33;;;;;;;5.55;3.88;;;28.00;96.70;;;;;;4876976;29;20060;-76
2022/07/20 04:26:01;;;;;;;7.78;4.38;;;28.00;96.70;;;;;;4868199;29;20049;-75
2022/07/20 04:28:28;;;;;;;6.22;4.80;;;27.80;96.70;;;;;;4858765;29;20068;-76
2022/07/20 04:30:56;;;;;;;7.30;4.28;;;27.50;96.70;;;;;;4868825;29;20045;-76
2022/07/20 04:33:26;;;;;;;5.00;4.60;;;27.60;96.70;;;;;;4869238;29;20073;-76
2022/07/20 04:35:54;;;;;;;5.80;3.97;;;27.80;96.70;;;;;;4869566;29;20067;-76
2022/07/20 04:38:22;;;;;;;4.20;3.78;;;27.90;96.70;;;;;;4871081;29;20519;-76
2022/07/20 04:40:50;;;;;;;6.18;4.28;;;27.90;96.70;;;;;;4869382;29;20105;-76
2022/07/20 04:43:18;;;;;;;6.55;3.70;;;27.80;96.70;;;;;;4866338;29;20057;-76
2022/07/20 04:45:46;;;;;;;7.07;4.25;;;27.70;96.70;;;;;;4868720;29;20048;-76
2022/07/20 04:48:24;;;;;;;6.53;4.25;;;27.80;96.70;;;;;;4852353;29;20057;-76
2022/07/20 04:50:52;;;;;;;5.55;4.20;;;27.80;96.70;;;;;;4856551;29;20049;-76
2022/07/20 04:53:20;;;;;;;5.53;4.10;;;27.80;96.70;;;;;;4853478;29;20132;-76
2022/07/20 04:55:48;;;;;;;8.73;4.93;;;27.90;96.70;;;;;;4853950;29;20053;-76
2022/07/20 04:58:15;;;;;;;6.15;4.30;;;28.00;96.70;;;;;;4870034;29;20048;-76
2022/07/20 05:00:43;;;;;;;6.78;4.38;;;28.00;96.70;;;;;;4870137;29;20059;-75
2022/07/20 05:03:11;;;;;;;5.05;4.38;;;28.10;96.70;;;;;;4868083;29;20061;-76
2022/07/20 05:05:40;;;;;;;7.10;4.88;;;28.00;96.70;;;;;;4870483;29;20080;-76
2022/07/20 05:08:14;;;;;;;6.45;4.45;;;27.70;96.70;;;;;;4870278;29;20069;-76
2022/07/20 05:10:41;;;;;;;8.15;4.88;;;27.60;96.70;;;;;;4884550;29;20053;-76
2022/07/20 05:13:09;;;;;;;7.45;4.78;;;27.50;96.70;;;;;;4869438;29;20068;-76
2022/07/20 05:15:37;;;;;;;11.27;5.50;;;27.60;96.70;;;;;;4870216;29;20041;-76
2022/07/20 05:18:05;;;;;;;9.60;4.55;;;27.60;96.70;;;;;;4870454;29;20053;-75
2022/07/20 05:20:33;;;;;;;10.25;4.97;;;27.70;96.70;;;;;;4869953;29;20080;-76
2022/07/20 05:23:02;;;;;;;5.40;3.63;;;27.80;96.70;;;;;;4871022;29;20041;-76
2022/07/20 05:25:30;;;;;;;4.97;3.92;;;27.80;96.70;;;;;;4885020;29;20152;-76
2022/07/20 05:27:58;;;;;;;4.60;3.80;;;27.80;96.70;;;;;;4875112;29;20048;-75
2022/07/20 05:30:25;;;;;;;6.95;4.18;;;27.70;96.70;;;;;;4872113;29;20580;-76
2022/07/20 05:32:53;;;;;;;7.03;3.85;;;27.70;96.70;;;;;;4874396;29;20075;-76
2022/07/20 05:35:21;;;;;;;8.13;4.30;;;27.60;96.70;;;;;;4872438;29;20105;-76
2022/07/20 05:37:49;;;;;;;6.60;3.80;;;27.70;96.70;;;;;;4871574;29;20045;-76
2022/07/20 05:40:18;;;;;;;6.18;3.88;;;27.70;96.70;;;;;;4872790;29;20048;-76
2022/07/20 05:42:46;;;;;;;6.10;4.18;;;27.60;96.70;;;;;;4884598;29;20076;-75
2022/07/20 05:45:14;;;;;;;6.97;4.28;;;27.70;96.70;;;;;;4871458;29;20048;-75
2022/07/20 05:47:42;;;;;;;7.70;4.60;;;27.70;96.70;;;;;;4883283;29;20053;-76
2022/07/20 05:50:09;;;;;;;7.15;4.78;;;27.70;96.70;;;;;;4870535;29;20049;-76
2022/07/20 05:52:37;;;;;;;8.88;4.72;;;27.70;96.70;;;;;;4867903;29;20610;-76
2022/07/20 05:55:06;;;;;;;8.00;4.90;;;27.70;96.70;;;;;;4873113;29;20051;-76
2022/07/20 05:57:35;;;;;;;5.88;4.00;;;27.70;96.70;;;;;;4872098;29;20056;-76
2022/07/20 06:00:04;;;;;;;6.95;4.15;;;27.80;96.70;;;;;;4886226;29;20052;-75
2022/07/20 06:02:32;;;;;;;5.78;3.65;;;27.90;96.70;;;;;;4882494;29;20591;-75
2022/07/20 06:05:00;;;;;;;9.18;3.70;;;27.90;96.70;;;;;;4886405;29;20080;-75
2022/07/20 06:07:28;;;;;;;8.27;4.07;;;27.80;96.70;;;;;;4872648;29;20041;-75
2022/07/20 06:09:55;;;;;;;4.63;3.83;;;27.90;96.70;;;;;;4871225;29;20507;-75
2022/07/20 06:12:23;;;;;;;4.65;3.88;;;28.00;96.70;;;;;;4869825;29;20054;-75
2022/07/20 06:14:52;;;;;;;7.40;3.78;;;28.20;96.70;;;;;;4856641;29;20053;-75
2022/07/20 06:17:20;;;;;;;5.72;3.50;;;28.20;96.70;;;;;;4871116;29;20081;-75
2022/07/20 06:19:48;;;;;;;8.27;4.15;;;28.30;96.70;;;;;;4870545;29;20041;-75
2022/07/20 06:22:16;;;;;;;9.23;4.13;;;28.40;96.70;;;;;;4879571;29;20054;-76
2022/07/20 06:24:44;;;;;;;5.68;3.85;;;28.50;96.70;;;;;;4867109;29;20057;-75
2022/07/20 06:27:23;;;;;;;5.13;3.67;;;28.40;96.70;;;;;;4871845;29;20060;-75
2022/07/20 06:29:53;;;;;;;6.82;3.83;;;28.50;96.70;;;;;;4870636;29;20051;-75
2022/07/20 06:32:21;;;;;;;6.90;4.22;;;28.50;96.70;;;;;;4870925;29;20153;-76
2022/07/20 06:34:49;;;;;;;7.65;4.00;;;28.60;96.70;;;;;;4871886;29;20603;-76
2022/07/20 06:37:17;;;;;;;6.10;3.90;;;28.60;96.70;;;;;;4850757;29;20053;-77
2022/07/20 06:39:45;;;;;;;4.45;3.47;;;28.70;96.70;;;;;;4870886;29;20116;-76
2022/07/20 06:42:15;;;;;;;4.75;3.47;;;28.80;96.70;;;;;;4872364;29;20539;-76
2022/07/20 06:44:44;;;;;;;5.95;3.58;;;28.70;96.70;;;;;;4874926;29;20048;-76
2022/07/20 06:47:14;;;;;;;6.18;2.92;;;28.70;96.70;;;;;;4882847;29;20136;-77
2022/07/20 06:49:43;;;;;;;9.63;3.67;;;28.70;96.70;;;;;;4870068;29;20535;-76
2022/07/20 06:52:11;;;;;;;8.50;3.50;;;28.80;96.70;;;;;;4871318;29;20049;-77
2022/07/20 06:54:40;;;;;;;3.90;3.35;;;28.90;96.70;;;;;;4870132;29;20056;-78
2022/07/20 06:57:09;;;;;;;6.60;3.38;;;29.00;96.70;;;;;;4870508;29;20457;-76
2022/07/20 06:59:37;;;;;;;5.90;3.60;;;29.10;96.70;;;;;;4873805;29;20045;-77
2022/07/20 07:02:05;;;;;;;5.32;3.15;;;29.20;96.60;;;;;;4870244;29;20045;-75
2022/07/20 07:04:35;;;;;;;8.32;3.10;;;29.30;96.70;;;;;;4871691;29;20444;-76
2022/07/20 07:07:03;;;;;;;8.38;3.20;;;29.30;96.70;;;;;;4871553;29;20049;-77
2022/07/20 07:09:31;;;;;;;13.45;3.28;;;29.30;95.80;;;;;;4870709;29;20053;-74
2022/07/20 07:11:59;;;;;;;7.47;3.20;;;29.40;94.60;;;;;;4871705;29;20203;-77
2022/07/20 07:14:27;;;;;;;6.78;2.83;;;29.50;94.80;;;;;;4871713;29;20685;-81
2022/07/20 07:16:55;;;;;;;6.60;2.70;;;29.60;93.90;;;;;;4853863;29;20041;-81
2022/07/20 07:19:23;;;;;;;4.45;2.10;;;29.70;92.90;;;;;;4872084;29;20127;-82
2022/07/20 07:21:52;;;;;;;4.20;2.30;;;29.70;89.50;;;;;;4871392;29;20045;-81
2022/07/20 07:24:20;;;;;;;8.88;1.92;;;29.90;89.20;;;;;;4872075;29;20061;-82
2022/07/20 07:26:48;;;;;;;3.10;1.60;;;29.90;86.60;;;;;;4852893;29;20098;-80
2022/07/20 07:29:19;;;;;;;2.92;1.77;;;30.00;86.20;;;;;;4869477;29;20048;-81
2022/07/20 07:31:47;;;;;;;3.22;2.20;;;30.00;84.90;;;;;;4872889;29;20854;-82
2022/07/20 07:34:15;;;;;;;2.70;1.80;;;30.10;85.10;;;;;;4871718;29;20069;-81
2022/07/20 07:36:43;;;;;;;4.95;1.83;;;30.10;84.10;;;;;;4871229;29;20072;-81
2022/07/20 07:39:14;;;;;;;4.25;1.88;;;30.20;83.80;;;;;;4855495;29;20044;-75
2022/07/20 07:41:42;;;;;;;2.25;1.63;;;30.30;82.80;;;;;;4870799;29;20052;-75
2022/07/20 07:44:10;;;;;;;4.85;2.00;;;30.30;82.60;;;;;;4866837;29;20042;-75
2022/07/20 07:46:38;;;;;;;3.10;2.05;;;30.30;82.10;;;;;;4869145;29;20055;-75
2022/07/20 07:49:06;;;;;;;4.45;2.28;;;30.40;81.20;;;;;;4868390;29;20068;-75
2022/07/20 07:51:34;;;;;;;3.35;2.13;;;30.50;80.90;;;;;;4868446;29;20041;-79
2022/07/20 07:54:02;;;;;;;4.65;2.22;;;30.70;80.50;;;;;;4866571;29;20055;-77
2022/07/20 07:56:32;;;;;;;3.00;2.38;;;30.80;80.70;;;;;;4868952;29;20044;-78
2022/07/20 07:58:59;;;;;;;3.70;2.13;;;30.80;80.50;;;;;;4862555;29;20120;-77
2022/07/20 08:01:48;;;;;;;4.78;2.35;;;30.90;80.70;;;;;;4864254;29;20048;-79
2022/07/20 08:04:16;;;;;;;6.82;1.98;;;30.90;81.50;;;;;;4873897;29;20073;-79
2022/07/20 08:06:44;;;;;;;6.68;2.60;;;30.90;81.00;;;;;;4870253;29;20049;-79
2022/07/20 08:09:12;;;;;;;5.28;1.98;;;31.00;80.60;;;;;;4870608;29;20045;-79
2022/07/20 08:11:41;;;;;;;2.90;1.60;;;31.00;80.20;;;;;;4868644;29;20045;-79
2022/07/20 08:14:09;;;;;;;5.03;1.70;;;31.10;80.30;;;;;;4871195;29;20575;-78
2022/07/20 08:16:37;;;;;;;3.30;1.60;;;31.10;79.40;;;;;;4868391;29;20049;-76
2022/07/20 08:19:05;;;;;;;3.72;1.50;;;31.10;79.60;;;;;;4869280;29;20063;-77
2022/07/20 08:21:33;;;;;;;3.58;1.25;;;31.10;78.80;;;;;;4869103;29;20503;-78
2022/07/20 08:24:03;;;;;;;3.83;1.63;;;31.20;78.50;;;;;;4870480;29;20075;-78
2022/07/20 08:26:31;;;;;;;3.40;1.42;;;31.30;78.20;;;;;;4868005;29;20073;-78
2022/07/20 08:29:01;;;;;;;6.55;1.75;;;31.40;78.10;;;;;;4885845;29;20056;-80
2022/07/20 08:31:36;;;;;;;3.15;1.30;;;31.50;77.70;;;;;;4870410;29;20514;-84
2022/07/20 08:34:04;;;;;;;2.17;1.27;;;31.60;77.50;;;;;;4889243;29;20053;-83
2022/07/20 08:36:32;;;;;;;4.85;1.30;;;31.80;77.10;;;;;;4872419;29;20650;-84
2022/07/20 08:39:01;;;;;;;2.47;1.33;;;31.90;77.00;;;;;;4873059;29;20690;-83
2022/07/20 08:41:32;;;;;;;4.63;1.65;;;32.00;76.10;;;;;;4871860;29;20045;-83
2022/07/20 08:44:01;;;;;;;5.72;1.42;;;32.20;75.40;;;;;;4859809;29;20108;-85
2022/07/20 08:46:31;;;;;;;4.78;1.35;;;32.20;74.60;;;;;;4874073;29;20144;-85
2022/07/20 08:49:00;;;;;;;4.93;1.55;;;32.30;74.10;;;;;;4873846;29;20049;-86
2022/07/20 08:51:28;;;;;;;5.50;1.65;;;32.30;74.30;;;;;;4872693;29;20112;-81
2022/07/20 08:53:56;;;;;;;2.85;1.27;;;32.30;73.50;;;;;;4870765;29;20045;-80
2022/07/20 08:56:24;;;;;;;2.60;1.10;;;32.40;72.00;;;;;;4872588;29;20096;-78
2022/07/20 08:58:52;;;;;;;4.40;1.30;;;32.40;73.60;;;;;;4874593;29;20041;-77
2022/07/20 09:01:28;;;;;;;5.35;1.15;;;32.50;73.30;;;;;;4871136;29;20135;-77
2022/07/20 09:04:07;;;;;;;7.40;1.63;;;32.70;72.30;;;;;;4876119;29;20057;-78
2022/07/20 09:06:46;;;;;;;3.03;1.30;;;32.80;72.30;;;;;;4888254;29;20057;-79
2022/07/20 09:09:14;;;;;;;4.47;1.63;;;32.90;71.50;;;;;;4860080;29;20076;-78
2022/07/20 09:11:42;;;;;;;3.67;1.60;;;33.00;71.50;;;;;;4874423;29;20056;-78
2022/07/20 09:14:10;;;;;;;3.75;1.10;;;33.00;72.00;;;;;;4873298;29;20069;-78
2022/07/20 09:16:46;;;;;;;2.85;1.55;;;33.10;72.00;;;;;;4873192;29;20556;-78
2022/07/20 09:19:17;;;;;;;4.35;1.80;;;33.00;71.50;;;;;;4870581;29;20056;-78
2022/07/20 09:21:48;;;;;;;5.07;1.55;;;33.10;72.50;;;;;;4874086;29;20437;-83
2022/07/20 09:24:19;;;;;;;3.70;1.45;;;32.90;71.00;;;;;;4883652;29;20057;-78
2022/07/20 09:27:03;;;;;;;4.47;1.80;;;33.10;69.60;;;;;;4872123;29;20425;-77
2022/07/20 09:29:31;;;;;;;2.85;1.27;;;33.30;69.10;;;;;;4871643;29;20049;-78
2022/07/20 09:32:03;;;;;;;2.17;1.35;;;33.40;70.40;;;;;;4854121;29;20065;-77
2022/07/20 09:34:36;;;;;;;3.35;1.10;;;33.50;70.90;;;;;;4871342;29;20055;-77
2022/07/20 09:37:16;;;;;;;4.50;1.70;;;33.60;70.10;;;;;;4871762;29;20049;-77
2022/07/20 09:40:03;;;;;;;2.65;1.70;;;33.60;70.60;;;;;;4872116;29;20143;-77
2022/07/20 09:42:38;;;;;;;2.83;1.30;;;33.60;70.90;;;;;;4872295;29;20051;-77
2022/07/20 09:45:24;;;;;;;2.28;1.50;;;33.40;70.50;;;;;;4883259;29;20131;-78
2022/07/20 09:48:12;;;;;;;2.85;1.08;;;33.30;69.10;;;;;;4867853;29;20585;-77
2022/07/20 09:50:42;;;;;;;2.47;1.33;;;33.30;69.60;;;;;;4868802;29;20174;-77
2022/07/20 09:53:10;;;;;;;2.35;1.23;;;33.60;69.30;;;;;;4871817;29;20049;-77
2022/07/20 09:55:40;;;;;;;3.55;1.30;;;33.80;69.00;;;;;;4871650;29;20045;-78
2022/07/20 09:58:08;;;;;;;7.60;1.40;;;34.00;67.50;;;;;;4872160;29;20504;-78
2022/07/20 10:00:37;;;;;;;6.13;1.50;;;34.10;68.40;;;;;;4864594;29;20045;-78
2022/07/20 10:03:21;;;;;;;2.45;1.45;;;34.10;69.00;;;;;;4872013;29;20037;-78
2022/07/20 10:05:50;;;;;;;3.63;1.17;;;34.00;67.00;;;;;;4871242;29;20065;-78
2022/07/20 10:08:18;;;;;;;1.88;1.20;;;34.20;68.80;;;;;;4871252;29;20543;-79
2022/07/20 10:10:46;;;;;;;3.50;1.20;;;34.10;68.50;;;;;;4868427;29;20299;-79
2022/07/20 10:13:15;;;;;;;2.70;1.25;;;34.00;68.00;;;;;;4876289;29;20045;-79
2022/07/20 10:15:53;;;;;;;1.77;1.58;;;34.20;67.10;;;;;;4871544;29;20113;-75
2022/07/20 10:18:24;;;;;;;1.90;1.13;;;34.50;65.70;;;;;;4871958;29;20057;-76
2022/07/20 10:20:52;;;;;;;2.28;1.10;;;34.50;65.10;;;;;;4874705;29;20136;-76
2022/07/20 10:23:38;;;;;;;3.58;1.60;;;34.70;65.50;;;;;;4870156;29;20042;-74
2022/07/20 10:26:25;;;;;;;2.95;1.48;;;35.00;65.50;;;;;;4887502;29;20470;-75
2022/07/20 10:28:59;;;;;;;2.47;1.67;;;35.20;66.90;;;;;;4868281;29;20744;-76
2022/07/20 10:31:48;;;;;;;3.00;1.48;;;35.20;65.80;;;;;;4877321;29;20053;-75
2022/07/20 10:34:39;;;;;;;2.15;1.70;;;35.00;65.80;;;;;;4873531;29;20049;-75
2022/07/20 10:37:26;;;;;;;4.28;2.20;;;35.10;65.70;;;;;;4871504;29;20054;-75
2022/07/20 10:40:05;;;;;;;3.88;1.30;;;35.30;66.20;;;;;;4872608;29;20909;-75
2022/07/20 10:42:35;;;;;;;2.22;1.55;;;35.20;65.70;;;;;;4871643;29;20053;-74
2022/07/20 10:45:34;;;;;;;5.53;1.80;;;35.20;65.30;;;;;;4876281;29;20109;-74
2022/07/20 10:48:20;;;;;;;4.03;1.50;;;35.60;65.80;;;;;;4872051;29;20056;-75
2022/07/20 10:50:55;;;;;;;2.92;1.40;;;36.00;64.70;;;;;;4869503;29;20049;-74
2022/07/20 10:53:34;;;;;;;4.78;1.50;;;36.10;65.20;;;;;;4872836;29;20416;-75
2022/07/20 10:56:12;;;;;;;3.65;1.65;;;36.10;64.40;;;;;;4872581;29;20147;-75
2022/07/20 10:58:42;;;;;;;3.17;1.52;;;36.30;64.40;;;;;;4872573;29;20049;-75
2022/07/20 11:01:12;;;;;;;3.42;1.48;;;36.30;63.70;;;;;;4874264;29;20056;-75
2022/07/20 11:03:45;;;;;;;4.35;1.50;;;36.50;64.50;;;;;;4856809;29;20432;-75
2022/07/20 11:06:21;;;;;;;6.57;2.00;;;36.40;63.90;;;;;;4874002;29;20079;-75
2022/07/20 11:08:53;;;;;;;4.43;1.75;;;36.40;64.60;;;;;;4873595;29;20053;-75
2022/07/20 11:11:27;;;;;;;4.00;1.60;;;36.20;64.80;;;;;;4886476;29;20460;-75
2022/07/20 11:13:56;;;;;;;2.75;1.90;;;36.30;65.10;;;;;;4854832;29;20057;-75
2022/07/20 11:16:27;;;;;;;3.42;1.60;;;36.70;65.00;;;;;;4870216;29;20057;-75
2022/07/20 11:18:57;;;;;;;5.30;1.60;;;36.90;64.00;;;;;;4871850;29;20056;-75
2022/07/20 11:21:33;;;;;;;3.22;1.70;;;37.00;64.20;;;;;;4872083;29;20045;-76
2022/07/20 11:24:20;;;;;;;5.20;1.80;;;36.80;64.20;;;;;;4870552;29;20061;-75
2022/07/20 11:26:49;;;;;;;1.60;1.20;;;36.90;63.30;;;;;;4872055;29;20055;-76
2022/07/20 11:29:23;;;;;;;2.95;1.50;;;36.90;63.60;;;;;;4870341;29;20079;-77
2022/07/20 11:31:52;;;;;;;6.50;1.70;;;37.20;63.80;;;;;;4872247;29;20408;-74
2022/07/20 11:34:21;;;;;;;4.60;2.20;;;37.20;64.10;;;;;;4871059;29;20163;-76
2022/07/20 11:36:54;;;;;;;5.30;2.13;;;37.10;64.80;;;;;;4828954;29;20151;-77
2022/07/20 11:39:25;;;;;;;3.88;1.77;;;37.00;64.10;;;;;;4850885;29;20708;-77
2022/07/20 11:41:58;;;;;;;3.42;2.15;;;37.10;64.60;;;;;;4850319;29;20062;-77
2022/07/20 11:44:27;;;;;;;3.63;2.30;;;37.10;64.40;;;;;;4829956;29;20060;-77
2022/07/20 11:46:57;;;;;;;2.30;2.03;;;37.00;64.20;;;;;;4812613;29;20058;-77
2022/07/20 11:49:26;;;;;;;2.40;2.03;;;37.10;64.20;;;;;;4799554;29;20046;-76
2022/07/20 11:52:07;;;;;;;4.38;2.47;;;37.00;63.90;;;;;;4813155;29;20343;-76
2022/07/20 11:54:39;;;;;;;3.83;2.10;;;37.40;64.80;;;;;;4815236;29;20147;-78
2022/07/20 11:57:11;;;;;;;5.68;2.65;;;37.80;63.40;;;;;;4812839;29;20050;-77
2022/07/20 11:59:44;;;;;;;3.47;2.40;;;37.80;62.80;;;;;;4812879;29;20089;-77
2022/07/20 12:02:13;;;;;;;4.25;2.80;;;38.00;63.20;;;;;;4812055;29;20058;-78
2022/07/20 12:04:42;;;;;;;3.45;2.08;;;38.20;64.00;;;;;;4810509;29;20122;-76
2022/07/20 12:10:08;;;;;;;4.15;2.60;;;38.40;62.90;;;;;;4836154;29;20746;-77
2022/07/20 12:12:45;;;;;;;4.78;2.25;;;38.50;62.80;;;;;;4834103;29;20053;-75
2022/07/20 12:15:14;;;;;;;4.72;2.40;;;38.40;62.40;;;;;;4843127;29;20057;-76
2022/07/20 12:17:51;;;;;;;3.15;2.50;;;38.30;61.20;;;;;;4849900;29;20064;-80
2022/07/20 12:20:20;;;;;;;5.18;3.22;;;38.10;62.30;;;;;;4851072;29;20102;-81
2022/07/20 12:22:52;;;;;;;2.83;2.50;;;38.00;62.60;;;;;;4824705;29;20106;-80
2022/07/20 12:25:21;;;;;;;5.10;3.03;;;38.00;62.70;;;;;;4859222;29;20056;-80
2022/07/20 12:27:50;;;;;;;3.28;2.35;;;38.00;62.40;;;;;;4868709;29;20140;-81
2022/07/20 12:30:29;;;;;;;5.97;3.30;;;38.10;63.20;;;;;;4854518;29;20063;-80
2022/07/20 12:33:05;;;;;;;4.78;2.95;;;38.30;63.80;;;;;;4870453;29;20496;-80
2022/07/20 12:35:34;;;;;;;4.40;2.83;;;38.60;62.60;;;;;;4869858;29;20489;-80
2022/07/20 12:38:08;;;;;;;6.57;2.90;;;38.60;62.70;;;;;;4856839;29;20082;-80
2022/07/20 12:40:41;;;;;;;3.10;2.70;;;38.50;62.60;;;;;;4870662;29;20136;-80
2022/07/20 12:43:32;;;;;;;3.67;3.00;;;38.30;62.40;;;;;;4871631;29;20143;-79
2022/07/20 12:46:05;;;;;;;4.75;2.90;;;38.50;63.60;;;;;;4864055;29;20076;-79
2022/07/20 12:48:34;;;;;;;3.67;2.95;;;38.70;62.30;;;;;;4855997;29;20176;-79
2022/07/20 12:51:02;;;;;;;5.53;3.17;;;38.70;62.70;;;;;;4872258;29;20065;-81
2022/07/20 12:53:33;;;;;;;6.40;3.13;;;38.50;63.10;;;;;;4871326;29;20053;-81
2022/07/20 12:56:02;;;;;;;4.55;2.95;;;38.50;63.50;;;;;;4887319;29;20053;-80
2022/07/20 12:58:30;;;;;;;3.72;2.90;;;38.50;63.80;;;;;;4855282;29;20072;-81
2022/07/20 13:00:58;;;;;;;6.38;3.17;;;38.50;64.90;;;;;;4872782;29;20048;-81
2022/07/20 13:03:27;;;;;;;6.35;3.30;;;38.60;64.60;;;;;;4868683;29;20053;-80
2022/07/20 13:05:56;;;;;;;3.92;3.20;;;38.90;63.20;;;;;;4869834;29;20045;-79